createdAt,value
2023-04-05T00:03:05.910Z,-2.44
2023-04-05T00:08:13.423Z,-2.53
2023-04-05T00:13:15.959Z,-2.63
2023-04-05T00:18:23.853Z,-2.65
2023-04-05T00:23:27.020Z,-2.65
2023-04-05T00:28:30.106Z,-2.61
2023-04-05T00:33:34.853Z,-2.51
2023-04-05T00:38:37.322Z,-2.35
2023-04-05T00:43:40.051Z,-2.31
2023-04-05T00:48:42.474Z,-2.15
2023-04-05T00:53:47.953Z,-2.01
2023-04-05T00:58:52.068Z,-2.13
2023-04-05T01:03:55.069Z,-2.17
2023-04-05T01:08:57.828Z,-2.17
2023-04-05T01:14:00.598Z,-2.20
2023-04-05T01:19:04.238Z,-2.20
2023-04-05T01:24:09.964Z,-2.19
2023-04-05T01:29:12.292Z,-2.26
2023-04-05T01:34:15.122Z,-2.33
2023-04-05T01:39:17.576Z,-2.34
2023-04-05T01:44:20.698Z,-2.45
2023-04-05T01:49:23.050Z,-2.51
2023-04-05T01:54:25.416Z,-2.48
2023-04-05T01:59:27.888Z,-2.47
2023-04-05T02:04:31.161Z,-2.48
2023-04-05T02:09:33.818Z,-2.47
2023-04-05T02:14:36.445Z,-2.59
2023-04-05T02:19:46.798Z,-2.59
2023-04-05T02:24:50.218Z,-2.60
2023-04-05T02:29:55.736Z,-2.54
2023-04-05T02:34:58.381Z,-2.48
2023-04-05T02:40:01.069Z,-2.26
2023-04-05T02:45:03.409Z,-2.09
2023-04-05T02:50:07.048Z,-2.06
2023-04-05T02:55:10.263Z,-2.12
2023-04-05T03:00:13.865Z,-2.19
2023-04-05T03:05:18.705Z,-2.28
2023-04-05T03:10:22.369Z,-2.30
2023-04-05T03:15:25.617Z,-2.32
2023-04-05T03:20:28.069Z,-2.38
2023-04-05T03:25:31.179Z,-2.35
2023-04-05T03:30:33.863Z,-2.48
2023-04-05T03:35:36.436Z,-2.55
2023-04-05T03:40:38.785Z,-2.62
2023-04-05T03:45:41.187Z,-2.64
2023-04-05T03:50:44.103Z,-2.61
2023-04-05T03:55:49.564Z,-2.72
2023-04-05T04:00:52.823Z,-2.56
2023-04-05T04:06:05.234Z,-2.64
2023-04-05T04:11:08.206Z,-2.60
2023-04-05T04:16:10.580Z,-2.67
2023-04-05T04:21:15.083Z,-2.78
2023-04-05T04:26:28.760Z,-2.91
2023-04-05T04:31:33.602Z,-2.89
2023-04-05T04:36:36.240Z,-2.86
2023-04-05T04:41:38.549Z,-2.96
2023-04-05T04:46:43.338Z,-2.96
2023-04-05T04:51:45.663Z,-3.06
2023-04-05T04:56:48.911Z,-3.05
2023-04-05T05:01:51.998Z,-2.90
2023-04-05T05:06:55.593Z,-2.83
2023-04-05T05:11:59.731Z,-2.71
2023-04-05T05:17:02.169Z,-2.59
2023-04-05T05:22:04.734Z,-2.48
2023-04-05T05:27:07.423Z,-2.33
2023-04-05T05:32:14.263Z,-2.15
2023-04-05T05:37:17.694Z,-1.84
2023-04-05T05:42:21.201Z,-1.54
2023-04-05T05:47:24.105Z,-1.50
2023-04-05T05:52:28.330Z,-1.35
2023-04-05T05:57:40.621Z,-1.38
2023-04-05T06:02:50.189Z,-1.29
2023-04-05T06:07:52.915Z,-1.23
2023-04-05T06:12:55.511Z,-1.04
2023-04-05T06:17:58.686Z,-0.75
2023-04-05T06:23:01.357Z,-0.82
2023-04-05T06:28:05.163Z,-0.52
2023-04-05T06:33:07.921Z,-0.57
2023-04-05T06:38:10.618Z,-0.52
2023-04-05T06:43:13.045Z,-0.61
2023-04-05T06:48:15.484Z,-0.53
2023-04-05T06:53:19.611Z,-0.29
2023-04-05T06:58:21.946Z,-0.13
2023-04-05T07:03:25.059Z,0.23
2023-04-05T07:08:37.823Z,0.63
2023-04-05T07:13:40.363Z,1.08
2023-04-05T07:18:43.576Z,1.25
2023-04-05T07:23:46.512Z,1.13
2023-04-05T07:28:58.870Z,0.86
2023-04-05T07:34:01.414Z,0.98
2023-04-05T07:39:05.300Z,1.14
2023-04-05T07:44:07.617Z,0.92
2023-04-05T07:49:09.995Z,1.37
2023-04-05T07:54:12.503Z,1.54
2023-04-05T07:59:15.420Z,1.57
2023-04-05T08:04:18.468Z,1.94
2023-04-05T08:09:21.232Z,2.37
2023-04-05T08:14:24.239Z,2.72
2023-04-05T08:19:27.383Z,2.98
2023-04-05T08:24:29.711Z,3.05
2023-04-05T08:29:32.478Z,2.73
2023-04-05T08:34:34.851Z,2.80
2023-04-05T08:39:37.197Z,3.19
2023-04-05T08:44:49.736Z,3.27
2023-04-05T08:49:56.960Z,3.15
2023-04-05T08:54:59.647Z,3.23
2023-04-05T09:00:02.229Z,3.32
2023-04-05T09:05:04.585Z,3.58
2023-04-05T09:10:07.065Z,2.93
2023-04-05T09:15:09.982Z,3.78
2023-04-05T09:20:12.702Z,3.46
2023-04-05T09:25:15.056Z,3.48
2023-04-05T09:30:19.008Z,4.00
2023-04-05T09:35:22.568Z,5.21
2023-04-05T09:40:25.736Z,5.20
2023-04-05T09:45:28.467Z,3.93
2023-04-05T09:50:33.002Z,4.70
2023-04-05T09:55:35.388Z,4.43
2023-04-05T10:00:37.720Z,4.16
2023-04-05T10:05:42.286Z,4.12
2023-04-05T10:10:44.785Z,4.36
2023-04-05T10:15:49.050Z,4.76
2023-04-05T10:20:52.215Z,5.07
2023-04-05T10:25:54.709Z,4.53
2023-04-05T10:30:57.492Z,3.85
2023-04-05T10:36:01.110Z,4.10
2023-04-05T10:41:03.871Z,4.21
2023-04-05T10:46:06.252Z,4.02
2023-04-05T10:51:09.479Z,4.16
2023-04-05T10:56:11.893Z,4.64
2023-04-05T11:01:17.468Z,4.82
2023-04-05T11:06:19.922Z,5.22
2023-04-05T11:11:22.677Z,4.46
2023-04-05T11:16:26.031Z,4.53
2023-04-05T11:21:28.739Z,4.61
2023-04-05T11:26:31.430Z,4.87
2023-04-05T11:31:34.765Z,5.00
2023-04-05T11:36:37.890Z,5.40
2023-04-05T11:41:40.208Z,5.21
2023-04-05T11:46:42.673Z,5.54
2023-04-05T11:51:48.685Z,5.16
2023-04-05T11:56:51.993Z,5.28
2023-04-05T12:01:54.369Z,5.40
2023-04-05T12:07:02.998Z,5.76
2023-04-05T12:12:05.416Z,5.22
2023-04-05T12:17:08.646Z,5.35
2023-04-05T12:22:12.167Z,5.67
2023-04-05T12:27:15.749Z,5.91
2023-04-05T12:32:18.282Z,6.41
2023-04-05T12:37:20.765Z,6.47
2023-04-05T12:42:23.979Z,6.53
2023-04-05T12:47:27.236Z,5.75
2023-04-05T12:52:29.682Z,5.91
2023-04-05T12:57:32.229Z,5.90
2023-04-05T13:02:34.570Z,6.22
2023-04-05T13:07:37.824Z,5.82
2023-04-05T13:12:40.106Z,6.02
2023-04-05T13:17:42.468Z,5.89
2023-04-05T13:22:45.300Z,6.50
2023-04-05T13:27:48.677Z,6.46
2023-04-05T13:32:53.423Z,6.28
2023-04-05T13:38:05.899Z,6.21
2023-04-05T13:43:08.589Z,5.64
2023-04-05T13:48:11.407Z,5.62
2023-04-05T13:53:13.898Z,5.81
2023-04-05T13:58:16.375Z,5.79
2023-04-05T14:03:18.829Z,6.22
2023-04-05T14:08:21.580Z,6.34
2023-04-05T14:13:24.165Z,5.93
2023-04-05T14:18:27.815Z,6.07
2023-04-05T14:23:30.280Z,6.29
2023-04-05T14:28:33.473Z,6.27
2023-04-05T14:33:36.501Z,6.31
2023-04-05T14:38:39.654Z,6.06
2023-04-05T14:43:43.117Z,6.41
2023-04-05T14:48:45.499Z,6.37
2023-04-05T14:53:48.175Z,6.41
2023-04-05T14:58:50.731Z,6.19
2023-04-05T15:03:54.056Z,6.09
2023-04-05T15:08:56.862Z,5.86
2023-04-05T15:13:59.243Z,5.74
2023-04-05T15:19:03.262Z,5.46
2023-04-05T15:24:05.655Z,5.75
2023-04-05T15:29:08.118Z,5.67
2023-04-05T15:34:10.532Z,5.64
2023-04-05T15:39:13.597Z,5.72
2023-04-05T15:44:16.528Z,5.59
2023-04-05T15:49:19.287Z,5.64
2023-04-05T15:54:21.767Z,5.53
2023-04-05T15:59:24.534Z,5.25
2023-04-05T16:04:28.104Z,5.24
2023-04-05T16:09:31.342Z,5.22
2023-04-05T16:14:33.793Z,5.22
2023-04-05T16:19:36.516Z,5.09
2023-04-05T16:24:39.829Z,5.11
2023-04-05T16:29:42.294Z,5.04
2023-04-05T16:34:45.443Z,5.08
2023-04-05T16:39:48.188Z,5.01
2023-04-05T16:44:51.803Z,5.01
2023-04-05T16:49:54.363Z,4.93
2023-04-05T16:54:57.490Z,4.65
2023-04-05T17:00:00.629Z,4.52
2023-04-05T17:05:03.922Z,4.48
2023-04-05T17:10:06.346Z,4.36
2023-04-05T17:15:09.056Z,4.27
2023-04-05T17:20:12.189Z,4.20
2023-04-05T17:25:15.752Z,4.11
2023-04-05T17:30:18.242Z,3.95
2023-04-05T17:35:20.980Z,3.82
2023-04-05T17:40:24.262Z,3.66
2023-04-05T17:45:27.559Z,3.64
2023-04-05T17:50:30.964Z,3.46
2023-04-05T17:55:34.258Z,3.32
2023-04-05T18:00:36.981Z,3.16
2023-04-05T18:05:41.410Z,3.29
2023-04-05T18:10:44.765Z,3.16
2023-04-05T18:15:48.268Z,3.11
2023-04-05T18:20:51.584Z,3.07
2023-04-05T18:25:54.759Z,2.98
2023-04-05T18:30:57.090Z,2.94
2023-04-05T18:35:59.428Z,3.01
2023-04-05T18:41:03.265Z,2.95
2023-04-05T18:46:05.678Z,2.88
2023-04-05T18:51:10.164Z,2.75
2023-04-05T18:56:13.415Z,2.84
2023-04-05T19:01:17.429Z,2.70
2023-04-05T19:06:28.028Z,2.56
2023-04-05T19:11:31.325Z,2.43
2023-04-05T19:16:43.778Z,2.76
2023-04-05T19:21:46.337Z,2.60
2023-04-05T19:26:48.706Z,2.55
2023-04-05T19:31:51.951Z,2.58
2023-04-05T19:36:54.676Z,2.33
2023-04-05T19:41:57.749Z,2.43
2023-04-05T19:47:03.013Z,2.17
2023-04-05T19:52:05.855Z,1.98
2023-04-05T19:57:09.708Z,2.21
2023-04-05T20:02:12.210Z,2.20
2023-04-05T20:07:14.969Z,2.23
2023-04-05T20:12:20.368Z,2.01
2023-04-05T20:17:28.332Z,1.85
2023-04-05T20:22:31.688Z,1.96
2023-04-05T20:27:34.200Z,1.76
2023-04-05T20:32:36.715Z,1.55
2023-04-05T20:37:39.189Z,1.35
2023-04-05T20:42:42.848Z,1.26
2023-04-05T20:47:52.633Z,1.31
2023-04-05T20:52:55.143Z,1.18
2023-04-05T20:57:57.865Z,1.24
2023-04-05T21:03:00.630Z,1.17
2023-04-05T21:08:03.645Z,1.03
2023-04-05T21:13:06.059Z,0.97
2023-04-05T21:18:10.404Z,0.81
2023-04-05T21:23:12.779Z,0.80
2023-04-05T21:28:16.221Z,0.74
2023-04-05T21:33:19.430Z,0.78
2023-04-05T21:38:21.817Z,0.71
2023-04-05T21:43:24.383Z,0.65
2023-04-05T21:48:27.909Z,0.62
2023-04-05T21:53:30.742Z,0.51
2023-04-05T21:58:33.957Z,0.40
2023-04-05T22:03:36.537Z,0.28
2023-04-05T22:08:38.931Z,0.27
2023-04-05T22:13:41.533Z,0.24
2023-04-05T22:18:46.199Z,0.26
2023-04-05T22:23:48.544Z,0.22
2023-04-05T22:28:51.789Z,0.13
2023-04-05T22:33:54.911Z,0.07
2023-04-05T22:38:57.302Z,0.08
2023-04-05T22:44:09.643Z,-0.01
2023-04-05T22:49:12.056Z,-0.06
2023-04-05T22:54:24.432Z,-0.07
2023-04-05T22:59:28.169Z,-0.12
2023-04-05T23:04:31.362Z,-0.21
2023-04-05T23:09:33.704Z,-0.24
2023-04-05T23:14:36.177Z,-0.25
2023-04-05T23:19:38.700Z,-0.20
2023-04-05T23:24:41.245Z,-0.26
2023-04-05T23:29:44.479Z,-0.14
2023-04-05T23:34:46.808Z,-0.29
2023-04-05T23:39:49.968Z,-0.34
2023-04-05T23:44:53.090Z,-0.41
2023-04-05T23:49:56.170Z,-0.47
2023-04-05T23:54:59.326Z,-0.46
